Time;durP1;ratioP1;P1;durP2;ratioP2;P2;SDS_P1;SDS_P2;PMS_P1;PMS_P2;Temp;Humidity;BMP_temperature;BMP_pressure;BME280_temperature;BME280_humidity;BME280_pressure;Samples;Min_cycle;Max_cycle;Signal;HPM_P1;HPM_P2
2023/06/13 08:33:22;;;;;;;;;13.50;12.25;;;;;;;;4307829;22;11679;-75
2023/06/13 08:35:47;;;;;;;;;19.75;19.75;;;;;;;;5000276;28;12311;-75
2023/06/13 08:38:12;;;;;;;;;18.75;17.75;;;;;;;;5005742;28;8857;-80
2023/06/13 08:40:39;;;;;;;;;18.50;17.50;;;;;;;;5020180;28;8992;-78
2023/06/13 08:43:04;;;;;;;;;19.75;19.75;;;;;;;;5007586;28;8829;-77
2023/06/13 08:45:29;;;;;;;;;25.50;23.50;;;;;;;;5006972;28;11659;-77
2023/06/13 08:47:55;;;;;;;;;20.00;19.00;;;;;;;;5007206;28;8825;-76
2023/06/13 08:50:24;;;;;;;;;21.50;19.00;;;;;;;;5007102;28;9575;-76
2023/06/13 08:52:49;;;;;;;;;20.00;16.00;;;;;;;;5006989;28;12457;-75
2023/06/13 08:55:16;;;;;;;;;20.00;20.00;;;;;;;;5007094;28;11520;-76
2023/06/13 08:57:41;;;;;;;;;21.75;20.25;;;;;;;;5022050;28;8828;-79
2023/06/13 09:00:09;;;;;;;;;18.25;17.00;;;;;;;;5006970;28;11526;-77
2023/06/13 09:02:36;;;;;;;;;15.00;15.00;;;;;;;;5007101;28;8818;-77
2023/06/13 09:05:03;;;;;;;;;21.00;17.75;;;;;;;;5006809;28;11516;-75
2023/06/13 09:07:28;;;;;;;;;22.25;20.00;;;;;;;;5007022;28;11535;-77
2023/06/13 09:09:54;;;;;;;;;20.25;18.25;;;;;;;;5006556;28;11624;-76
2023/06/13 09:12:20;;;;;;;;;15.00;15.00;;;;;;;;5007076;28;8824;-76
2023/06/13 09:14:45;;;;;;;;;16.25;16.00;;;;;;;;5006829;28;8825;-75
2023/06/13 09:17:11;;;;;;;;;15.25;13.25;;;;;;;;5006475;28;9657;-77
2023/06/13 09:19:36;;;;;;;;;16.75;14.75;;;;;;;;5005490;28;8802;-77
2023/06/13 09:22:02;;;;;;;;;16.50;15.25;;;;;;;;5003806;28;8879;-77
2023/06/13 09:24:27;;;;;;;;;17.25;16.50;;;;;;;;5005682;28;8825;-78
2023/06/13 09:26:52;;;;;;;;;12.75;11.75;;;;;;;;5006726;28;8900;-78
2023/06/13 09:29:17;;;;;;;;;22.25;20.50;;;;;;;;5006515;28;8881;-75
2023/06/13 09:31:43;;;;;;;;;19.00;18.00;;;;;;;;5006320;28;8829;-74
2023/06/13 09:34:12;;;;;;;;;19.50;18.00;;;;;;;;5006336;28;8837;-75
2023/06/13 09:36:38;;;;;;;;;18.25;18.25;;;;;;;;5005955;28;8822;-79
2023/06/13 09:39:04;;;;;;;;;19.50;18.25;;;;;;;;5005663;28;11298;-77
2023/06/13 09:41:31;;;;;;;;;22.75;19.75;;;;;;;;5005125;28;11107;-72
2023/06/13 09:43:56;;;;;;;;;18.50;18.00;;;;;;;;5005268;28;8816;-73
2023/06/13 09:46:23;;;;;;;;;22.00;20.25;;;;;;;;5004356;28;11130;-72
2023/06/13 09:48:49;;;;;;;;;16.75;16.25;;;;;;;;5005400;28;9654;-72
2023/06/13 09:51:15;;;;;;;;;18.75;17.75;;;;;;;;5005798;28;11447;-73
2023/06/13 09:53:42;;;;;;;;;23.50;22.50;;;;;;;;5006373;28;8916;-72
2023/06/13 09:56:09;;;;;;;;;21.50;16.00;;;;;;;;5006031;28;9003;-72
2023/06/13 09:58:35;;;;;;;;;20.50;19.50;;;;;;;;5001928;28;11518;-76
2023/06/13 10:01:03;;;;;;;;;12.25;12.25;;;;;;;;5006266;28;11591;-73
2023/06/13 10:03:28;;;;;;;;;21.25;20.25;;;;;;;;5006422;28;11500;-72
2023/06/13 10:05:54;;;;;;;;;16.00;13.25;;;;;;;;5005736;28;11629;-73
2023/06/13 10:08:20;;;;;;;;;15.75;15.75;;;;;;;;5005789;28;8793;-73
2023/06/13 10:10:45;;;;;;;;;19.50;17.25;;;;;;;;5004141;28;11173;-73
2023/06/13 10:13:14;;;;;;;;;18.25;18.00;;;;;;;;5005885;28;8825;-73
2023/06/13 10:15:43;;;;;;;;;20.50;19.50;;;;;;;;5005176;28;8778;-73
2023/06/13 10:18:12;;;;;;;;;16.75;13.50;;;;;;;;5005087;28;11234;-74
2023/06/13 10:20:38;;;;;;;;;19.25;17.25;;;;;;;;5006418;28;11171;-73
2023/06/13 10:23:05;;;;;;;;;16.50;16.50;;;;;;;;5006051;28;12018;-72
2023/06/13 10:25:32;;;;;;;;;18.50;17.50;;;;;;;;5006093;28;11059;-72
2023/06/13 10:27:59;;;;;;;;;20.00;17.75;;;;;;;;5006109;28;11300;-72
2023/06/13 10:30:25;;;;;;;;;17.75;15.50;;;;;;;;5006036;28;11203;-72
2023/06/13 10:32:51;;;;;;;;;18.50;17.50;;;;;;;;5006150;28;11537;-72
2023/06/13 10:35:16;;;;;;;;;17.00;16.75;;;;;;;;5005251;28;11233;-72
2023/06/13 10:37:45;;;;;;;;;11.75;11.75;;;;;;;;5005799;28;8931;-73
2023/06/13 10:40:28;;;;;;;;;13.25;13.25;;;;;;;;5006202;28;8798;-74
2023/06/13 10:43:05;;;;;;;;;18.25;17.25;;;;;;;;5005935;28;11525;-74
2023/06/13 10:45:30;;;;;;;;;18.75;16.50;;;;;;;;5005669;28;11542;-72
2023/06/13 10:47:59;;;;;;;;;16.50;14.25;;;;;;;;5005651;28;11338;-71
2023/06/13 10:50:24;;;;;;;;;18.25;17.00;;;;;;;;5006015;28;8810;-72
2023/06/13 10:52:52;;;;;;;;;18.50;17.50;;;;;;;;5006720;28;11603;-72
2023/06/13 10:55:23;;;;;;;;;14.75;14.75;;;;;;;;5009291;28;8801;-72
2023/06/13 10:57:50;;;;;;;;;18.50;17.25;;;;;;;;5007002;28;11854;-72
2023/06/13 11:00:28;;;;;;;;;13.00;12.50;;;;;;;;5008869;28;11392;-72
2023/06/13 11:03:13;;;;;;;;;14.50;14.50;;;;;;;;5008320;28;10995;-72
2023/06/13 11:05:44;;;;;;;;;18.25;18.25;;;;;;;;5007621;28;10888;-72
2023/06/13 11:08:16;;;;;;;;;15.00;15.00;;;;;;;;5008138;28;11035;-72
2023/06/13 11:10:45;;;;;;;;;19.25;17.00;;;;;;;;5008556;28;11159;-72
2023/06/13 11:13:21;;;;;;;;;19.00;16.00;;;;;;;;5007051;28;12054;-72
2023/06/13 11:15:46;;;;;;;;;13.75;11.00;;;;;;;;5021412;28;11026;-72
2023/06/13 11:18:13;;;;;;;;;19.50;17.75;;;;;;;;5008169;28;10971;-71
2023/06/13 11:20:58;;;;;;;;;15.75;15.25;;;;;;;;5008862;28;8816;-72
2023/06/13 11:23:36;;;;;;;;;15.75;14.75;;;;;;;;5008800;28;10957;-71
2023/06/13 11:26:02;;;;;;;;;19.50;19.50;;;;;;;;5008881;28;11056;-73
2023/06/13 11:28:29;;;;;;;;;19.75;18.75;;;;;;;;5008499;28;11282;-71
2023/06/13 11:30:55;;;;;;;;;15.00;15.00;;;;;;;;5008063;28;11299;-71
2023/06/13 11:33:21;;;;;;;;;16.00;16.00;;;;;;;;5008423;28;11488;-71
2023/06/13 11:35:50;;;;;;;;;18.00;16.75;;;;;;;;5008593;28;8810;-72
2023/06/13 11:38:27;;;;;;;;;16.75;15.00;;;;;;;;5008498;28;11501;-72
2023/06/13 11:40:56;;;;;;;;;17.75;16.50;;;;;;;;5003102;28;11683;-72
2023/06/13 11:43:23;;;;;;;;;19.00;18.00;;;;;;;;5008207;28;11518;-72
2023/06/13 11:45:49;;;;;;;;;13.25;13.25;;;;;;;;5003169;28;11311;-72
2023/06/13 11:48:22;;;;;;;;;16.50;16.50;;;;;;;;5008228;28;11143;-72
2023/06/13 11:50:47;;;;;;;;;15.25;13.50;;;;;;;;5008248;28;8821;-72
2023/06/13 11:53:12;;;;;;;;;14.75;13.50;;;;;;;;5007521;28;11276;-72
2023/06/13 11:55:38;;;;;;;;;16.00;16.00;;;;;;;;5008257;28;8917;-72
2023/06/13 11:58:03;;;;;;;;;15.50;14.75;;;;;;;;5007889;28;8813;-72
2023/06/13 12:00:46;;;;;;;;;13.25;13.25;;;;;;;;5008421;28;8944;-72
2023/06/13 12:03:11;;;;;;;;;14.00;14.00;;;;;;;;5008141;28;8826;-72
2023/06/13 12:05:37;;;;;;;;;17.50;15.75;;;;;;;;5008205;28;11032;-71
2023/06/13 12:08:02;;;;;;;;;16.00;16.00;;;;;;;;5022754;28;8833;-71
2023/06/13 12:10:27;;;;;;;;;18.25;16.75;;;;;;;;5007839;28;8845;-72
2023/06/13 12:12:56;;;;;;;;;21.00;18.25;;;;;;;;5006462;28;8857;-71
2023/06/13 12:15:25;;;;;;;;;17.25;17.25;;;;;;;;5008183;28;8821;-71
2023/06/13 12:17:59;;;;;;;;;16.50;15.00;;;;;;;;5006478;28;11057;-71
2023/06/13 12:20:24;;;;;;;;;16.00;15.50;;;;;;;;5007948;28;11020;-71
2023/06/13 12:22:56;;;;;;;;;13.00;13.00;;;;;;;;5007625;28;11178;-71
2023/06/13 12:25:23;;;;;;;;;12.00;12.00;;;;;;;;5007740;28;8871;-71
2023/06/13 12:27:50;;;;;;;;;16.25;15.00;;;;;;;;5007612;28;11080;-71
2023/06/13 12:30:17;;;;;;;;;15.50;13.50;;;;;;;;5007551;28;11892;-71
2023/06/13 12:32:43;;;;;;;;;17.50;17.50;;;;;;;;5007575;28;11079;-71
2023/06/13 12:35:09;;;;;;;;;12.50;12.50;;;;;;;;5005021;28;11137;-71
2023/06/13 12:37:37;;;;;;;;;15.25;15.25;;;;;;;;5006989;28;8798;-72
2023/06/13 12:40:13;;;;;;;;;13.25;13.00;;;;;;;;5007108;28;8952;-71
2023/06/13 12:42:42;;;;;;;;;16.00;14.75;;;;;;;;5007348;28;11018;-71
2023/06/13 12:45:08;;;;;;;;;12.75;10.75;;;;;;;;5006941;28;10889;-72
2023/06/13 12:47:33;;;;;;;;;14.50;13.25;;;;;;;;5006151;28;11741;-72
2023/06/13 12:50:11;;;;;;;;;14.00;14.00;;;;;;;;5007519;28;8851;-72
2023/06/13 12:52:38;;;;;;;;;15.00;14.00;;;;;;;;5005999;28;9079;-72
2023/06/13 12:55:03;;;;;;;;;17.25;15.25;;;;;;;;5022216;28;10980;-72
2023/06/13 12:57:29;;;;;;;;;16.00;14.75;;;;;;;;5007435;28;11203;-73
2023/06/13 12:59:54;;;;;;;;;20.00;16.25;;;;;;;;5007221;28;8969;-74
2023/06/13 13:02:22;;;;;;;;;13.75;13.75;;;;;;;;5007147;28;8857;-72
2023/06/13 13:04:49;;;;;;;;;16.75;15.75;;;;;;;;5007348;28;8810;-72
2023/06/13 13:07:15;;;;;;;;;14.25;14.25;;;;;;;;5007277;28;11178;-72
2023/06/13 13:09:43;;;;;;;;;13.75;12.75;;;;;;;;5006920;28;11157;-72
2023/06/13 13:12:09;;;;;;;;;15.00;15.00;;;;;;;;5007266;28;11975;-72
2023/06/13 13:14:35;;;;;;;;;13.50;13.50;;;;;;;;5007020;28;11554;-72
2023/06/13 13:17:00;;;;;;;;;13.75;12.75;;;;;;;;5006569;28;8813;-72
2023/06/13 13:19:25;;;;;;;;;16.00;16.00;;;;;;;;5006935;28;8830;-72
2023/06/13 13:21:51;;;;;;;;;15.50;14.25;;;;;;;;5007097;28;8853;-71
2023/06/13 13:24:17;;;;;;;;;14.00;13.50;;;;;;;;5006968;28;8844;-72
2023/06/13 13:26:43;;;;;;;;;16.00;16.00;;;;;;;;5007274;28;8818;-72
2023/06/13 13:29:09;;;;;;;;;13.25;12.00;;;;;;;;5045705;22;9454;-76
2023/06/13 13:31:34;;;;;;;;;19.75;17.75;;;;;;;;5025283;28;11981;-77
2023/06/13 13:33:59;;;;;;;;;17.50;16.00;;;;;;;;5026543;28;8819;-77
2023/06/13 13:36:25;;;;;;;;;16.00;14.75;;;;;;;;5026540;28;8831;-78
2023/06/13 13:38:50;;;;;;;;;16.00;15.50;;;;;;;;5026570;28;8839;-78
2023/06/13 13:41:16;;;;;;;;;18.75;17.00;;;;;;;;5026675;28;8835;-78
2023/06/13 13:43:41;;;;;;;;;19.00;18.00;;;;;;;;5026592;28;8827;-77
2023/06/13 13:46:06;;;;;;;;;10.25;10.25;;;;;;;;5026635;28;8811;-77
2023/06/13 13:48:31;;;;;;;;;17.25;17.00;;;;;;;;5026446;28;8839;-77
2023/06/13 13:50:57;;;;;;;;;17.50;17.25;;;;;;;;5026316;28;8826;-78
2023/06/13 13:53:22;;;;;;;;;13.00;13.00;;;;;;;;5026056;28;8917;-79
2023/06/13 13:55:47;;;;;;;;;14.00;13.00;;;;;;;;5026422;28;8808;-79
2023/06/13 13:58:12;;;;;;;;;13.50;13.25;;;;;;;;5026260;28;8850;-78
2023/06/13 14:00:38;;;;;;;;;14.75;14.25;;;;;;;;5026422;28;8894;-77
2023/06/13 14:03:04;;;;;;;;;13.50;13.50;;;;;;;;5026133;28;8893;-77
2023/06/13 14:05:29;;;;;;;;;12.50;12.50;;;;;;;;5026184;28;8831;-77
2023/06/13 14:07:54;;;;;;;;;15.25;15.25;;;;;;;;5026096;28;11547;-77
2023/06/13 14:10:20;;;;;;;;;8.50;8.50;;;;;;;;5026185;28;8857;-79
2023/06/13 14:12:45;;;;;;;;;20.75;18.00;;;;;;;;5024774;28;8811;-79
2023/06/13 14:15:11;;;;;;;;;15.00;15.00;;;;;;;;5026104;28;11501;-78
2023/06/13 14:17:36;;;;;;;;;14.75;14.50;;;;;;;;5026164;28;8865;-77
2023/06/13 14:20:02;;;;;;;;;15.75;15.75;;;;;;;;5026077;28;9643;-79
2023/06/13 14:22:27;;;;;;;;;15.00;15.00;;;;;;;;5024425;28;8837;-78
2023/06/13 14:24:52;;;;;;;;;15.00;15.00;;;;;;;;5026012;28;11163;-78
2023/06/13 14:27:17;;;;;;;;;18.50;15.00;;;;;;;;5026136;28;8842;-78
2023/06/13 14:29:43;;;;;;;;;7.50;7.50;;;;;;;;5029365;28;8839;-79
2023/06/13 14:32:08;;;;;;;;;18.00;17.50;;;;;;;;5029345;28;8912;-80
2023/06/13 14:34:33;;;;;;;;;16.50;16.50;;;;;;;;5029551;28;9588;-78
2023/06/13 14:36:58;;;;;;;;;18.75;16.75;;;;;;;;5027640;28;8839;-78
2023/06/13 14:39:24;;;;;;;;;13.00;13.00;;;;;;;;5029382;28;8819;-78
2023/06/13 14:41:49;;;;;;;;;20.50;15.25;;;;;;;;5029292;28;8827;-79
2023/06/13 14:44:14;;;;;;;;;17.00;16.25;;;;;;;;5029450;28;8804;-78
2023/06/13 14:46:39;;;;;;;;;15.25;14.50;;;;;;;;5029307;28;8811;-78
2023/06/13 14:49:05;;;;;;;;;17.75;15.50;;;;;;;;5029281;28;8850;-78
2023/06/13 14:51:30;;;;;;;;;16.00;16.00;;;;;;;;5028734;28;8812;-78
2023/06/13 14:53:56;;;;;;;;;11.75;11.75;;;;;;;;5029354;28;8819;-79
2023/06/13 14:56:21;;;;;;;;;17.00;17.00;;;;;;;;5029022;28;8807;-80
2023/06/13 14:58:46;;;;;;;;;13.75;12.00;;;;;;;;5029084;28;8967;-78
2023/06/13 15:01:11;;;;;;;;;17.25;15.50;;;;;;;;5027440;28;8933;-77
2023/06/13 15:03:39;;;;;;;;;17.50;17.00;;;;;;;;5029034;28;8823;-78
2023/06/13 15:06:06;;;;;;;;;15.50;13.50;;;;;;;;5028606;28;8818;-77
2023/06/13 15:08:31;;;;;;;;;15.50;15.00;;;;;;;;5028786;28;11545;-78
2023/06/13 15:10:56;;;;;;;;;17.00;16.00;;;;;;;;5028461;28;11766;-78
2023/06/13 15:13:21;;;;;;;;;15.75;15.00;;;;;;;;5028920;28;8958;-78
2023/06/13 15:15:51;;;;;;;;;17.25;16.25;;;;;;;;5028793;28;8827;-79
2023/06/13 15:18:16;;;;;;;;;14.25;12.00;;;;;;;;5028782;28;8807;-78
2023/06/13 15:20:41;;;;;;;;;13.75;12.50;;;;;;;;5028570;28;11510;-78
2023/06/13 15:23:07;;;;;;;;;23.75;17.75;;;;;;;;5028557;28;8988;-78
2023/06/13 15:25:32;;;;;;;;;14.75;14.25;;;;;;;;5028726;28;8803;-78
2023/06/13 15:27:57;;;;;;;;;15.50;12.25;;;;;;;;5028388;28;8877;-78
2023/06/13 15:30:22;;;;;;;;;16.50;13.00;;;;;;;;5028689;28;8937;-78
2023/06/13 15:32:47;;;;;;;;;14.75;13.00;;;;;;;;5028547;28;8850;-80
2023/06/13 15:35:12;;;;;;;;;14.50;14.25;;;;;;;;5027958;28;8827;-79
2023/06/13 15:37:38;;;;;;;;;16.50;15.50;;;;;;;;5028419;28;8888;-79
2023/06/13 15:40:04;;;;;;;;;15.50;13.75;;;;;;;;5027881;28;8800;-80
2023/06/13 15:42:29;;;;;;;;;16.25;15.00;;;;;;;;5028249;28;11220;-80
2023/06/13 15:44:54;;;;;;;;;12.25;12.25;;;;;;;;5028490;28;8839;-80
2023/06/13 15:47:19;;;;;;;;;12.25;12.25;;;;;;;;5028076;28;8842;-79
2023/06/13 15:49:45;;;;;;;;;14.75;12.00;;;;;;;;5028026;28;8873;-79
2023/06/13 15:52:10;;;;;;;;;11.75;11.25;;;;;;;;5028291;28;8911;-80
2023/06/13 15:54:35;;;;;;;;;12.25;11.25;;;;;;;;5028433;28;8811;-81
2023/06/13 15:57:00;;;;;;;;;13.00;13.00;;;;;;;;5028178;28;9650;-82
2023/06/13 15:59:25;;;;;;;;;15.00;15.00;;;;;;;;5028604;28;8945;-80
2023/06/13 16:01:51;;;;;;;;;16.00;16.00;;;;;;;;5028102;28;9585;-79
2023/06/13 16:04:16;;;;;;;;;13.25;13.25;;;;;;;;5028251;28;8873;-79
2023/06/13 16:06:41;;;;;;;;;15.50;14.75;;;;;;;;5027952;28;8885;-79
2023/06/13 16:09:06;;;;;;;;;11.25;11.25;;;;;;;;5028247;28;8912;-80
2023/06/13 16:11:31;;;;;;;;;12.50;12.50;;;;;;;;5027963;28;8835;-78
2023/06/13 16:13:57;;;;;;;;;11.00;11.00;;;;;;;;5028012;28;8854;-79
2023/06/13 16:16:22;;;;;;;;;10.75;10.75;;;;;;;;5027739;28;8827;-81
2023/06/13 16:18:48;;;;;;;;;14.25;14.25;;;;;;;;5027445;28;8843;-78
2023/06/13 16:21:13;;;;;;;;;12.00;12.00;;;;;;;;5027778;28;8831;-76
2023/06/13 16:23:38;;;;;;;;;13.50;13.50;;;;;;;;5027846;28;8842;-80
2023/06/13 16:26:05;;;;;;;;;13.25;13.25;;;;;;;;5027681;28;8824;-80
2023/06/13 16:28:30;;;;;;;;;12.75;12.75;;;;;;;;5027564;28;8822;-79
2023/06/13 16:30:55;;;;;;;;;18.00;16.25;;;;;;;;5027918;28;11488;-80
2023/06/13 16:33:21;;;;;;;;;12.75;12.75;;;;;;;;5027747;28;8838;-80
2023/06/13 16:35:46;;;;;;;;;11.25;11.25;;;;;;;;5027563;28;9029;-79
2023/06/13 16:38:11;;;;;;;;;15.75;13.75;;;;;;;;5027487;28;9635;-81
2023/06/13 16:40:36;;;;;;;;;13.50;12.75;;;;;;;;5027547;28;8851;-80
2023/06/13 16:43:01;;;;;;;;;12.25;11.25;;;;;;;;5027901;28;8843;-81
2023/06/13 16:45:27;;;;;;;;;12.00;10.50;;;;;;;;5027277;28;8867;-73
2023/06/13 16:47:52;;;;;;;;;9.75;8.25;;;;;;;;5027273;28;8912;-73
2023/06/13 16:50:18;;;;;;;;;15.50;15.50;;;;;;;;5026181;28;9536;-73
2023/06/13 16:52:43;;;;;;;;;14.25;14.25;;;;;;;;5027501;28;8905;-73
2023/06/13 16:55:08;;;;;;;;;12.00;11.25;;;;;;;;5027189;28;8920;-74
2023/06/13 16:57:33;;;;;;;;;13.25;13.25;;;;;;;;5026253;28;8847;-74
2023/06/13 16:59:58;;;;;;;;;12.75;12.75;;;;;;;;5027148;28;8831;-74
2023/06/13 17:02:24;;;;;;;;;11.00;10.50;;;;;;;;5027017;28;8948;-74
2023/06/13 17:04:49;;;;;;;;;11.00;11.00;;;;;;;;5027065;28;8815;-73
2023/06/13 17:07:14;;;;;;;;;11.25;10.50;;;;;;;;5027222;28;8941;-74
2023/06/13 17:09:39;;;;;;;;;11.75;11.00;;;;;;;;5027192;28;8819;-74
2023/06/13 17:12:05;;;;;;;;;13.50;12.50;;;;;;;;5027297;28;8913;-74
2023/06/13 17:14:31;;;;;;;;;14.25;12.00;;;;;;;;5026956;28;8799;-73
2023/06/13 17:16:56;;;;;;;;;14.00;12.50;;;;;;;;5026575;28;11445;-73
2023/06/13 17:19:23;;;;;;;;;12.00;12.00;;;;;;;;5026905;28;8946;-73
2023/06/13 17:21:48;;;;;;;;;15.75;14.25;;;;;;;;5020290;28;8889;-73
2023/06/13 17:24:14;;;;;;;;;16.00;16.00;;;;;;;;5026723;28;12403;-73
2023/06/13 17:26:40;;;;;;;;;18.25;14.50;;;;;;;;5025409;28;8839;-73
2023/06/13 17:29:06;;;;;;;;;14.00;14.00;;;;;;;;5026522;28;8853;-73
2023/06/13 17:31:31;;;;;;;;;17.50;15.25;;;;;;;;5026594;28;8799;-74
2023/06/13 17:33:56;;;;;;;;;13.25;13.25;;;;;;;;5026581;28;8842;-74
2023/06/13 17:36:21;;;;;;;;;12.75;12.75;;;;;;;;5026799;28;8827;-74
2023/06/13 17:38:46;;;;;;;;;12.50;12.50;;;;;;;;5026851;28;10011;-74
2023/06/13 17:41:11;;;;;;;;;17.75;15.00;;;;;;;;5026581;28;8846;-73
2023/06/13 17:43:37;;;;;;;;;17.00;14.75;;;;;;;;5026338;28;8935;-78
2023/06/13 17:46:02;;;;;;;;;13.00;11.50;;;;;;;;5026405;28;8923;-76
2023/06/13 17:48:27;;;;;;;;;17.50;16.00;;;;;;;;5026697;28;8828;-76
2023/06/13 17:50:53;;;;;;;;;14.50;13.25;;;;;;;;5026539;28;8897;-76
2023/06/13 17:53:18;;;;;;;;;12.75;12.75;;;;;;;;5026630;28;8831;-80
2023/06/13 17:55:43;;;;;;;;;14.25;14.25;;;;;;;;5026737;28;8831;-73
2023/06/13 17:58:08;;;;;;;;;19.25;16.25;;;;;;;;5026641;28;8874;-76
2023/06/13 18:00:34;;;;;;;;;17.25;15.75;;;;;;;;5026298;28;8823;-78
2023/06/13 18:02:59;;;;;;;;;13.75;13.75;;;;;;;;5031551;28;8987;-75
2023/06/13 18:05:24;;;;;;;;;15.50;15.50;;;;;;;;5033043;28;8841;-75
2023/06/13 18:07:51;;;;;;;;;21.75;21.75;;;;;;;;5032708;28;8827;-76
2023/06/13 18:10:18;;;;;;;;;17.75;14.25;;;;;;;;5033026;28;10030;-76
2023/06/13 18:12:43;;;;;;;;;14.00;14.00;;;;;;;;5027116;28;11256;-75
2023/06/13 18:15:08;;;;;;;;;14.50;14.25;;;;;;;;5031269;28;11202;-80
2023/06/13 18:17:33;;;;;;;;;14.75;14.75;;;;;;;;5032800;28;8917;-74
2023/06/13 18:19:59;;;;;;;;;13.25;13.25;;;;;;;;5032626;28;8900;-76
2023/06/13 18:22:24;;;;;;;;;13.75;13.50;;;;;;;;5032833;28;8847;-77
2023/06/13 18:24:49;;;;;;;;;14.50;14.50;;;;;;;;5032924;28;8820;-76
2023/06/13 18:27:15;;;;;;;;;14.75;14.75;;;;;;;;5032925;28;8827;-77
2023/06/13 18:29:40;;;;;;;;;19.75;16.25;;;;;;;;5032415;28;8831;-77
2023/06/13 18:32:06;;;;;;;;;11.75;11.50;;;;;;;;5032710;28;8889;-76
2023/06/13 18:34:31;;;;;;;;;14.75;14.00;;;;;;;;5032595;28;8838;-77
2023/06/13 18:36:56;;;;;;;;;9.00;9.00;;;;;;;;5032849;28;8819;-76
2023/06/13 18:39:21;;;;;;;;;12.25;12.25;;;;;;;;5032726;28;8838;-75
2023/06/13 18:41:47;;;;;;;;;12.50;12.50;;;;;;;;5031049;28;10090;-75
2023/06/13 18:44:12;;;;;;;;;12.75;12.75;;;;;;;;5032405;28;8780;-75
2023/06/13 18:46:38;;;;;;;;;13.25;12.50;;;;;;;;5031961;28;11522;-74
2023/06/13 18:49:03;;;;;;;;;17.00;17.00;;;;;;;;5032400;28;8842;-74
2023/06/13 18:51:28;;;;;;;;;12.25;12.25;;;;;;;;5032258;28;8811;-75
2023/06/13 18:53:53;;;;;;;;;12.25;12.25;;;;;;;;5032464;28;8957;-76
2023/06/13 18:56:19;;;;;;;;;15.25;15.25;;;;;;;;5032603;28;8823;-74
2023/06/13 18:58:44;;;;;;;;;11.50;11.50;;;;;;;;5031959;28;8819;-75
2023/06/13 19:01:09;;;;;;;;;12.75;12.00;;;;;;;;5032285;28;8913;-74
2023/06/13 19:03:35;;;;;;;;;15.50;14.25;;;;;;;;5031912;28;8839;-76
2023/06/13 19:06:00;;;;;;;;;13.00;12.00;;;;;;;;5031295;28;8835;-75
2023/06/13 19:08:25;;;;;;;;;14.00;13.50;;;;;;;;5032052;28;8834;-75
2023/06/13 19:10:51;;;;;;;;;13.50;13.50;;;;;;;;5031956;28;8846;-72
2023/06/13 19:13:21;;;;;;;;;18.75;16.25;;;;;;;;5030135;28;8949;-73
2023/06/13 19:15:46;;;;;;;;;12.75;11.75;;;;;;;;5028748;28;8893;-76
2023/06/13 19:18:12;;;;;;;;;15.25;14.25;;;;;;;;5027484;28;11112;-75
2023/06/13 19:20:38;;;;;;;;;12.75;12.75;;;;;;;;5028028;28;8901;-74
2023/06/13 19:23:03;;;;;;;;;15.50;15.50;;;;;;;;5027665;28;11115;-76
2023/06/13 19:25:28;;;;;;;;;11.50;11.50;;;;;;;;5028849;28;8800;-81
2023/06/13 19:27:54;;;;;;;;;13.00;13.00;;;;;;;;5028378;28;10168;-76
2023/06/13 19:30:19;;;;;;;;;14.50;13.50;;;;;;;;5028575;28;8803;-77
2023/06/13 19:32:44;;;;;;;;;14.50;14.50;;;;;;;;5026296;28;8843;-76
2023/06/13 19:35:10;;;;;;;;;12.00;12.00;;;;;;;;5028529;28;8803;-78
2023/06/13 19:37:35;;;;;;;;;12.50;12.00;;;;;;;;5028757;28;8822;-87
2023/06/13 19:40:01;;;;;;;;;15.00;14.25;;;;;;;;5028463;28;8819;-77
2023/06/13 19:42:27;;;;;;;;;16.50;15.75;;;;;;;;5028276;28;8882;-79
2023/06/13 19:44:52;;;;;;;;;19.00;17.00;;;;;;;;5028561;28;11505;-82
2023/06/13 19:47:17;;;;;;;;;14.50;14.50;;;;;;;;5028057;28;8847;-72
2023/06/13 19:49:44;;;;;;;;;18.00;18.00;;;;;;;;5028471;28;8845;-74
2023/06/13 19:52:09;;;;;;;;;18.25;16.75;;;;;;;;5028351;28;8807;-74
2023/06/13 19:54:34;;;;;;;;;16.50;16.50;;;;;;;;5028117;28;11322;-74
2023/06/13 19:57:00;;;;;;;;;17.50;14.75;;;;;;;;5028068;28;8823;-74
2023/06/13 19:59:25;;;;;;;;;17.25;17.25;;;;;;;;5027855;28;9631;-74
2023/06/13 20:01:51;;;;;;;;;17.25;16.75;;;;;;;;5027528;28;8863;-74
2023/06/13 20:04:17;;;;;;;;;24.75;23.00;;;;;;;;5027904;28;8799;-74
2023/06/13 20:06:42;;;;;;;;;20.50;19.00;;;;;;;;5026807;28;11665;-75
2023/06/13 20:09:09;;;;;;;;;16.25;16.25;;;;;;;;5027995;28;8823;-74
2023/06/13 20:11:34;;;;;;;;;22.25;22.25;;;;;;;;5027761;28;8865;-76
2023/06/13 20:14:00;;;;;;;;;22.00;18.00;;;;;;;;5026157;28;11528;-75
2023/06/13 20:16:26;;;;;;;;;20.75;18.50;;;;;;;;5021226;28;8896;-75
2023/06/13 20:18:51;;;;;;;;;24.50;19.75;;;;;;;;5028071;28;8865;-75
2023/06/13 20:21:19;;;;;;;;;22.50;19.75;;;;;;;;5027738;28;8815;-80
2023/06/13 20:23:44;;;;;;;;;22.75;19.75;;;;;;;;5028045;28;8844;-75
2023/06/13 20:26:10;;;;;;;;;17.50;17.50;;;;;;;;5026049;28;11284;-75
2023/06/13 20:28:35;;;;;;;;;20.50;20.25;;;;;;;;5027727;28;8889;-76
2023/06/13 20:31:01;;;;;;;;;22.00;22.00;;;;;;;;5027149;28;8843;-76
2023/06/13 20:33:26;;;;;;;;;23.00;21.25;;;;;;;;5027568;28;8803;-75
2023/06/13 20:35:52;;;;;;;;;25.50;22.50;;;;;;;;5027478;28;11540;-75
2023/06/13 20:38:17;;;;;;;;;23.75;22.75;;;;;;;;5027469;28;8839;-73
2023/06/13 20:40:42;;;;;;;;;22.25;21.50;;;;;;;;5027444;28;8941;-73
2023/06/13 20:43:10;;;;;;;;;25.50;24.00;;;;;;;;5027308;28;8956;-73
2023/06/13 20:45:36;;;;;;;;;23.75;23.25;;;;;;;;5025792;28;8799;-73
2023/06/13 20:48:01;;;;;;;;;23.25;23.25;;;;;;;;5027506;28;11519;-74
2023/06/13 20:50:29;;;;;;;;;22.50;21.00;;;;;;;;5027478;28;8827;-73
2023/06/13 20:52:54;;;;;;;;;20.00;19.00;;;;;;;;5025997;28;8811;-73
2023/06/13 20:55:20;;;;;;;;;27.75;27.75;;;;;;;;5026408;28;11537;-73
2023/06/13 20:57:45;;;;;;;;;27.50;24.00;;;;;;;;5027162;28;8819;-72
2023/06/13 21:00:21;;;;;;;;;22.75;21.50;;;;;;;;5021762;28;8831;-72
2023/06/13 21:02:50;;;;;;;;;21.25;19.75;;;;;;;;5026682;28;8828;-73
2023/06/13 21:05:15;;;;;;;;;20.00;18.25;;;;;;;;5026750;28;11613;-73
2023/06/13 21:07:41;;;;;;;;;22.25;20.75;;;;;;;;5025940;28;11857;-73
